sensor_id;sensor_type;location;lat;lon;timestamp;temperature;humidity
75387;DHT22;63966;47.914;22.266;2023-07-13T00:00:27;18.59;95.54
75387;DHT22;63966;47.914;22.266;2023-07-13T00:03:31;18.61;95.46
75387;DHT22;63966;47.914;22.266;2023-07-13T00:06:38;18.59;95.13
75387;DHT22;63966;47.914;22.266;2023-07-13T00:09:42;18.55;95.15
75387;DHT22;63966;47.914;22.266;2023-07-13T00:12:45;18.57;95.06
75387;DHT22;63966;47.914;22.266;2023-07-13T00:15:48;18.49;95.04
75387;DHT22;63966;47.914;22.266;2023-07-13T00:18:52;18.36;95.33
75387;DHT22;63966;47.914;22.266;2023-07-13T00:21:56;18.31;95.43
75387;DHT22;63966;47.914;22.266;2023-07-13T00:25:01;18.34;95.65
75387;DHT22;63966;47.914;22.266;2023-07-13T00:28:05;18.33;95.92
75387;DHT22;63966;47.914;22.266;2023-07-13T00:31:10;18.36;95.98
75387;DHT22;63966;47.914;22.266;2023-07-13T00:34:14;18.28;96.13
75387;DHT22;63966;47.914;22.266;2023-07-13T00:37:17;18.36;96.20
75387;DHT22;63966;47.914;22.266;2023-07-13T00:40:21;18.34;96.33
75387;DHT22;63966;47.914;22.266;2023-07-13T00:43:27;18.23;96.18
75387;DHT22;63966;47.914;22.266;2023-07-13T00:46:32;18.17;96.03
75387;DHT22;63966;47.914;22.266;2023-07-13T00:49:38;18.26;96.24
75387;DHT22;63966;47.914;22.266;2023-07-13T00:52:45;18.33;96.37
75387;DHT22;63966;47.914;22.266;2023-07-13T00:55:50;18.40;96.44
75387;DHT22;63966;47.914;22.266;2023-07-13T00:58:55;18.44;96.43
75387;DHT22;63966;47.914;22.266;2023-07-13T01:01:58;18.43;96.43
75387;DHT22;63966;47.914;22.266;2023-07-13T01:05:13;18.36;96.08
75387;DHT22;63966;47.914;22.266;2023-07-13T01:08:21;18.45;96.19
75387;DHT22;63966;47.914;22.266;2023-07-13T01:11:24;18.37;96.08
75387;DHT22;63966;47.914;22.266;2023-07-13T01:14:28;18.27;95.80
75387;DHT22;63966;47.914;22.266;2023-07-13T01:17:33;18.44;95.87
75387;DHT22;63966;47.914;22.266;2023-07-13T01:20:37;18.58;95.30
75387;DHT22;63966;47.914;22.266;2023-07-13T01:23:41;18.48;95.07
75387;DHT22;63966;47.914;22.266;2023-07-13T01:26:44;18.31;94.97
75387;DHT22;63966;47.914;22.266;2023-07-13T01:29:48;18.31;95.60
75387;DHT22;63966;47.914;22.266;2023-07-13T01:32:52;18.28;95.82
75387;DHT22;63966;47.914;22.266;2023-07-13T01:35:56;18.13;95.43
75387;DHT22;63966;47.914;22.266;2023-07-13T01:39:03;17.99;94.78
75387;DHT22;63966;47.914;22.266;2023-07-13T01:42:07;18.00;95.07
75387;DHT22;63966;47.914;22.266;2023-07-13T01:45:11;18.20;95.27
75387;DHT22;63966;47.914;22.266;2023-07-13T01:48:14;18.17;94.89
75387;DHT22;63966;47.914;22.266;2023-07-13T01:51:19;18.13;95.22
75387;DHT22;63966;47.914;22.266;2023-07-13T01:54:22;18.11;95.29
75387;DHT22;63966;47.914;22.266;2023-07-13T01:57:26;18.00;95.42
75387;DHT22;63966;47.914;22.266;2023-07-13T02:00:30;17.94;95.60
75387;DHT22;63966;47.914;22.266;2023-07-13T02:03:33;17.97;95.84
75387;DHT22;63966;47.914;22.266;2023-07-13T02:06:37;18.04;95.86
75387;DHT22;63966;47.914;22.266;2023-07-13T02:09:40;18.09;95.93
75387;DHT22;63966;47.914;22.266;2023-07-13T02:12:45;18.11;95.91
75387;DHT22;63966;47.914;22.266;2023-07-13T02:15:51;18.04;95.96
75387;DHT22;63966;47.914;22.266;2023-07-13T02:18:55;18.04;95.96
75387;DHT22;63966;47.914;22.266;2023-07-13T02:21:58;18.09;96.00
75387;DHT22;63966;47.914;22.266;2023-07-13T02:25:02;18.09;96.00
75387;DHT22;63966;47.914;22.266;2023-07-13T02:28:06;18.16;96.08
75387;DHT22;63966;47.914;22.266;2023-07-13T02:31:11;18.17;96.01
75387;DHT22;63966;47.914;22.266;2023-07-13T02:34:15;18.14;95.69
75387;DHT22;63966;47.914;22.266;2023-07-13T02:37:19;18.16;95.56
75387;DHT22;63966;47.914;22.266;2023-07-13T02:40:22;18.17;95.50
75387;DHT22;63966;47.914;22.266;2023-07-13T02:43:27;18.24;95.54
75387;DHT22;63966;47.914;22.266;2023-07-13T02:46:32;18.31;95.46
75387;DHT22;63966;47.914;22.266;2023-07-13T02:49:36;18.43;95.30
75387;DHT22;63966;47.914;22.266;2023-07-13T02:52:40;18.48;94.48
75387;DHT22;63966;47.914;22.266;2023-07-13T02:55:43;18.55;94.33
75387;DHT22;63966;47.914;22.266;2023-07-13T02:58:50;18.62;94.29
75387;DHT22;63966;47.914;22.266;2023-07-13T03:01:54;18.62;93.69
75387;DHT22;63966;47.914;22.266;2023-07-13T03:04:58;18.68;93.55
75387;DHT22;63966;47.914;22.266;2023-07-13T03:08:01;18.86;93.19
75387;DHT22;63966;47.914;22.266;2023-07-13T03:11:20;19.03;92.43
75387;DHT22;63966;47.914;22.266;2023-07-13T03:14:30;19.03;92.17
75387;DHT22;63966;47.914;22.266;2023-07-13T03:17:35;19.09;91.98
75387;DHT22;63966;47.914;22.266;2023-07-13T03:20:39;19.10;91.91
75387;DHT22;63966;47.914;22.266;2023-07-13T03:23:43;19.20;91.56
75387;DHT22;63966;47.914;22.266;2023-07-13T03:26:46;19.44;90.88
75387;DHT22;63966;47.914;22.266;2023-07-13T03:29:50;19.70;89.78
75387;DHT22;63966;47.914;22.266;2023-07-13T03:32:54;19.68;89.80
75387;DHT22;63966;47.914;22.266;2023-07-13T03:35:57;19.72;89.72
75387;DHT22;63966;47.914;22.266;2023-07-13T03:39:02;19.58;90.14
75387;DHT22;63966;47.914;22.266;2023-07-13T03:42:12;19.57;90.33
75387;DHT22;63966;47.914;22.266;2023-07-13T03:45:16;19.57;90.42
75387;DHT22;63966;47.914;22.266;2023-07-13T03:48:19;19.50;90.87
75387;DHT22;63966;47.914;22.266;2023-07-13T03:51:22;19.37;91.66
75387;DHT22;63966;47.914;22.266;2023-07-13T03:54:27;19.82;90.69
75387;DHT22;63966;47.914;22.266;2023-07-13T03:57:31;20.06;89.08
75387;DHT22;63966;47.914;22.266;2023-07-13T04:00:35;19.89;89.74
75387;DHT22;63966;47.914;22.266;2023-07-13T04:03:38;19.91;89.85
75387;DHT22;63966;47.914;22.266;2023-07-13T04:06:42;19.96;89.53
75387;DHT22;63966;47.914;22.266;2023-07-13T04:09:47;19.72;90.79
75387;DHT22;63966;47.914;22.266;2023-07-13T04:12:51;19.81;90.89
75387;DHT22;63966;47.914;22.266;2023-07-13T04:15:54;20.05;90.27
75387;DHT22;63966;47.914;22.266;2023-07-13T04:18:57;20.57;89.46
75387;DHT22;63966;47.914;22.266;2023-07-13T04:22:04;21.67;86.21
75387;DHT22;63966;47.914;22.266;2023-07-13T04:25:07;23.11;80.39
75387;DHT22;63966;47.914;22.266;2023-07-13T04:28:11;23.34;78.06
75387;DHT22;63966;47.914;22.266;2023-07-13T04:31:15;22.66;80.13
75387;DHT22;63966;47.914;22.266;2023-07-13T04:34:18;22.34;81.44
75387;DHT22;63966;47.914;22.266;2023-07-13T04:37:22;22.73;81.27
75387;DHT22;63966;47.914;22.266;2023-07-13T04:40:27;23.45;78.08
75387;DHT22;63966;47.914;22.266;2023-07-13T04:43:31;22.89;79.88
75387;DHT22;63966;47.914;22.266;2023-07-13T04:46:35;22.32;82.33
75387;DHT22;63966;47.914;22.266;2023-07-13T04:49:38;22.17;83.38
75387;DHT22;63966;47.914;22.266;2023-07-13T04:52:42;22.10;83.72
75387;DHT22;63966;47.914;22.266;2023-07-13T04:55:46;22.12;84.43
75387;DHT22;63966;47.914;22.266;2023-07-13T04:58:50;22.00;84.71
75387;DHT22;63966;47.914;22.266;2023-07-13T05:01:53;22.31;83.46
75387;DHT22;63966;47.914;22.266;2023-07-13T05:04:57;22.42;83.62
75387;DHT22;63966;47.914;22.266;2023-07-13T05:08:01;22.59;82.70
75387;DHT22;63966;47.914;22.266;2023-07-13T05:11:06;22.56;82.82
75387;DHT22;63966;47.914;22.266;2023-07-13T05:14:11;22.66;82.63
75387;DHT22;63966;47.914;22.266;2023-07-13T05:17:14;23.26;80.81
75387;DHT22;63966;47.914;22.266;2023-07-13T05:20:18;23.47;80.08
75387;DHT22;63966;47.914;22.266;2023-07-13T05:23:22;23.82;78.01
75387;DHT22;63966;47.914;22.266;2023-07-13T05:26:25;24.05;77.33
75387;DHT22;63966;47.914;22.266;2023-07-13T05:29:29;25.09;74.77
75387;DHT22;63966;47.914;22.266;2023-07-13T05:32:34;25.90;71.44
75387;DHT22;63966;47.914;22.266;2023-07-13T05:35:37;27.08;67.91
75387;DHT22;63966;47.914;22.266;2023-07-13T05:38:40;27.97;64.60
75387;DHT22;63966;47.914;22.266;2023-07-13T05:41:44;28.85;61.25
75387;DHT22;63966;47.914;22.266;2023-07-13T05:44:48;29.51;59.32
75387;DHT22;63966;47.914;22.266;2023-07-13T05:47:51;29.37;59.54
75387;DHT22;63966;47.914;22.266;2023-07-13T05:50:55;30.39;57.40
75387;DHT22;63966;47.914;22.266;2023-07-13T05:53:58;30.86;55.67
75387;DHT22;63966;47.914;22.266;2023-07-13T05:57:01;30.32;56.67
75387;DHT22;63966;47.914;22.266;2023-07-13T06:00:05;30.01;58.24
75387;DHT22;63966;47.914;22.266;2023-07-13T06:03:15;29.70;59.07
75387;DHT22;63966;47.914;22.266;2023-07-13T06:06:20;29.54;60.64
75387;DHT22;63966;47.914;22.266;2023-07-13T06:09:24;29.67;59.21
75387;DHT22;63966;47.914;22.266;2023-07-13T06:12:27;30.29;58.09
75387;DHT22;63966;47.914;22.266;2023-07-13T06:15:31;30.26;58.34
75387;DHT22;63966;47.914;22.266;2023-07-13T06:18:36;30.37;57.57
75387;DHT22;63966;47.914;22.266;2023-07-13T06:21:40;30.31;57.51
75387;DHT22;63966;47.914;22.266;2023-07-13T06:24:43;30.83;56.28
75387;DHT22;63966;47.914;22.266;2023-07-13T06:27:47;32.11;53.44
75387;DHT22;63966;47.914;22.266;2023-07-13T06:30:50;31.86;54.24
75387;DHT22;63966;47.914;22.266;2023-07-13T06:33:54;30.37;57.71
75387;DHT22;63966;47.914;22.266;2023-07-13T06:36:57;29.77;59.22
75387;DHT22;63966;47.914;22.266;2023-07-13T06:40:01;29.63;60.38
75387;DHT22;63966;47.914;22.266;2023-07-13T06:43:04;30.04;59.78
75387;DHT22;63966;47.914;22.266;2023-07-13T06:46:08;30.66;58.02
75387;DHT22;63966;47.914;22.266;2023-07-13T06:49:11;30.94;57.40
75387;DHT22;63966;47.914;22.266;2023-07-13T06:52:15;30.67;57.73
75387;DHT22;63966;47.914;22.266;2023-07-13T06:55:18;30.39;58.34
75387;DHT22;63966;47.914;22.266;2023-07-13T06:58:22;30.64;57.72
75387;DHT22;63966;47.914;22.266;2023-07-13T07:01:25;30.80;57.74
75387;DHT22;63966;47.914;22.266;2023-07-13T07:04:29;30.95;58.18
75387;DHT22;63966;47.914;22.266;2023-07-13T07:07:32;30.74;58.27
75387;DHT22;63966;47.914;22.266;2023-07-13T07:10:36;30.79;57.62
75387;DHT22;63966;47.914;22.266;2023-07-13T07:13:39;30.19;60.90
75387;DHT22;63966;47.914;22.266;2023-07-13T07:16:43;29.00;62.11
75387;DHT22;63966;47.914;22.266;2023-07-13T07:19:46;28.37;64.52
75387;DHT22;63966;47.914;22.266;2023-07-13T07:22:50;28.07;66.08
75387;DHT22;63966;47.914;22.266;2023-07-13T07:25:53;27.61;67.72
75387;DHT22;63966;47.914;22.266;2023-07-13T07:28:57;27.97;67.29
75387;DHT22;63966;47.914;22.266;2023-07-13T07:32:03;28.47;66.79
75387;DHT22;63966;47.914;22.266;2023-07-13T07:35:27;27.21;69.14
75387;DHT22;63966;47.914;22.266;2023-07-13T07:38:34;26.50;71.02
75387;DHT22;63966;47.914;22.266;2023-07-13T07:41:38;26.00;73.39
75387;DHT22;63966;47.914;22.266;2023-07-13T07:44:44;25.70;74.73
75387;DHT22;63966;47.914;22.266;2023-07-13T07:47:48;25.42;76.18
75387;DHT22;63966;47.914;22.266;2023-07-13T07:50:51;25.20;76.83
75387;DHT22;63966;47.914;22.266;2023-07-13T07:53:55;24.91;78.00
75387;DHT22;63966;47.914;22.266;2023-07-13T07:56:58;24.47;81.63
75387;DHT22;63966;47.914;22.266;2023-07-13T08:00:21;21.24;87.44
75387;DHT22;63966;47.914;22.266;2023-07-13T08:03:28;20.11;90.47
75387;DHT22;63966;47.914;22.266;2023-07-13T08:06:51;19.99;93.68
75387;DHT22;63966;47.914;22.266;2023-07-13T08:09:55;19.71;91.69
75387;DHT22;63966;47.914;22.266;2023-07-13T08:12:58;19.50;92.12
75387;DHT22;63966;47.914;22.266;2023-07-13T08:16:05;19.44;92.10
75387;DHT22;63966;47.914;22.266;2023-07-13T08:19:09;19.50;92.07
75387;DHT22;63966;47.914;22.266;2023-07-13T08:22:12;19.49;92.44
75387;DHT22;63966;47.914;22.266;2023-07-13T08:25:16;19.67;92.43
75387;DHT22;63966;47.914;22.266;2023-07-13T08:28:23;19.70;92.96
75387;DHT22;63966;47.914;22.266;2023-07-13T08:31:26;19.75;92.92
75387;DHT22;63966;47.914;22.266;2023-07-13T08:34:30;19.92;93.20
75387;DHT22;63966;47.914;22.266;2023-07-13T08:37:33;20.20;91.50
75387;DHT22;63966;47.914;22.266;2023-07-13T08:40:36;20.61;91.98
75387;DHT22;63966;47.914;22.266;2023-07-13T08:43:41;21.36;89.68
75387;DHT22;63966;47.914;22.266;2023-07-13T08:46:46;22.47;86.06
75387;DHT22;63966;47.914;22.266;2023-07-13T08:49:50;24.16;81.19
75387;DHT22;63966;47.914;22.266;2023-07-13T08:52:55;25.63;74.50
75387;DHT22;63966;47.914;22.266;2023-07-13T08:56:00;24.13;77.58
75387;DHT22;63966;47.914;22.266;2023-07-13T08:59:13;22.93;81.17
75387;DHT22;63966;47.914;22.266;2023-07-13T09:02:50;22.12;83.05
75387;DHT22;63966;47.914;22.266;2023-07-13T09:05:59;21.79;83.71
75387;DHT22;63966;47.914;22.266;2023-07-13T09:09:16;21.91;83.53
75387;DHT22;63966;47.914;22.266;2023-07-13T09:15:45;21.69;84.96
75387;DHT22;63966;47.914;22.266;2023-07-13T09:18:51;21.50;85.89
75387;DHT22;63966;47.914;22.266;2023-07-13T09:21:56;21.34;86.29
75387;DHT22;63966;47.914;22.266;2023-07-13T09:25:11;21.19;88.09
75387;DHT22;63966;47.914;22.266;2023-07-13T09:28:27;21.12;88.49
75387;DHT22;63966;47.914;22.266;2023-07-13T09:31:32;21.02;89.04
75387;DHT22;63966;47.914;22.266;2023-07-13T09:34:37;21.14;89.70
75387;DHT22;63966;47.914;22.266;2023-07-13T09:37:40;21.16;89.60
75387;DHT22;63966;47.914;22.266;2023-07-13T09:41:11;21.14;89.70
75387;DHT22;63966;47.914;22.266;2023-07-13T09:44:31;21.14;89.30
75387;DHT22;63966;47.914;22.266;2023-07-13T09:47:40;21.39;88.53
75387;DHT22;63966;47.914;22.266;2023-07-13T09:50:44;21.70;87.60
75387;DHT22;63966;47.914;22.266;2023-07-13T09:53:48;21.87;87.72
75387;DHT22;63966;47.914;22.266;2023-07-13T09:57:00;22.08;86.90
75387;DHT22;63966;47.914;22.266;2023-07-13T10:00:05;22.12;85.85
75387;DHT22;63966;47.914;22.266;2023-07-13T10:03:27;22.28;86.01
75387;DHT22;63966;47.914;22.266;2023-07-13T10:06:31;22.63;85.68
75387;DHT22;63966;47.914;22.266;2023-07-13T10:09:34;22.95;84.37
75387;DHT22;63966;47.914;22.266;2023-07-13T10:12:38;23.13;82.60
75387;DHT22;63966;47.914;22.266;2023-07-13T10:15:42;23.30;83.31
75387;DHT22;63966;47.914;22.266;2023-07-13T10:18:53;23.78;82.45
75387;DHT22;63966;47.914;22.266;2023-07-13T10:22:02;23.83;80.54
75387;DHT22;63966;47.914;22.266;2023-07-13T10:25:19;24.36;78.59
75387;DHT22;63966;47.914;22.266;2023-07-13T10:28:34;24.20;79.11
75387;DHT22;63966;47.914;22.266;2023-07-13T10:31:38;24.40;79.41
75387;DHT22;63966;47.914;22.266;2023-07-13T10:34:44;24.16;80.04
75387;DHT22;63966;47.914;22.266;2023-07-13T10:41:02;25.40;75.81
75387;DHT22;63966;47.914;22.266;2023-07-13T10:44:15;25.33;77.12
75387;DHT22;63966;47.914;22.266;2023-07-13T10:47:20;25.83;77.42
75387;DHT22;63966;47.914;22.266;2023-07-13T10:50:26;26.20;76.47
75387;DHT22;63966;47.914;22.266;2023-07-13T10:53:35;26.17;74.78
75387;DHT22;63966;47.914;22.266;2023-07-13T10:56:40;26.05;76.27
75387;DHT22;63966;47.914;22.266;2023-07-13T11:03:14;26.48;73.73
75387;DHT22;63966;47.914;22.266;2023-07-13T11:09:39;26.76;73.21
75387;DHT22;63966;47.914;22.266;2023-07-13T11:12:54;26.90;74.90
75387;DHT22;63966;47.914;22.266;2023-07-13T11:15:57;26.77;72.74
75387;DHT22;63966;47.914;22.266;2023-07-13T11:22:12;27.70;72.16
75387;DHT22;63966;47.914;22.266;2023-07-13T11:28:32;28.28;68.47
75387;DHT22;63966;47.914;22.266;2023-07-13T11:31:37;28.85;67.99
75387;DHT22;63966;47.914;22.266;2023-07-13T11:34:41;28.58;68.47
75387;DHT22;63966;47.914;22.266;2023-07-13T11:37:46;28.48;69.30
75387;DHT22;63966;47.914;22.266;2023-07-13T11:40:53;28.13;66.49
75387;DHT22;63966;47.914;22.266;2023-07-13T11:47:21;28.58;68.62
75387;DHT22;63966;47.914;22.266;2023-07-13T11:50:25;28.67;68.55
75387;DHT22;63966;47.914;22.266;2023-07-13T11:53:39;28.71;66.62
75387;DHT22;63966;47.914;22.266;2023-07-13T11:56:43;28.83;66.99
75387;DHT22;63966;47.914;22.266;2023-07-13T11:59:46;28.54;68.19
75387;DHT22;63966;47.914;22.266;2023-07-13T12:02:52;29.20;66.88
75387;DHT22;63966;47.914;22.266;2023-07-13T12:06:02;28.87;66.79
75387;DHT22;63966;47.914;22.266;2023-07-13T12:09:12;29.02;66.19
75387;DHT22;63966;47.914;22.266;2023-07-13T12:12:21;29.33;65.78
75387;DHT22;63966;47.914;22.266;2023-07-13T12:18:38;29.22;65.51
75387;DHT22;63966;47.914;22.266;2023-07-13T12:21:44;29.23;66.21
75387;DHT22;63966;47.914;22.266;2023-07-13T12:24:48;29.46;66.08
75387;DHT22;63966;47.914;22.266;2023-07-13T12:27:52;29.43;66.37
75387;DHT22;63966;47.914;22.266;2023-07-13T12:30:59;29.40;65.58
75387;DHT22;63966;47.914;22.266;2023-07-13T12:34:10;29.15;65.31
75387;DHT22;63966;47.914;22.266;2023-07-13T12:37:14;28.71;66.17
75387;DHT22;63966;47.914;22.266;2023-07-13T12:40:21;28.74;66.40
75387;DHT22;63966;47.914;22.266;2023-07-13T12:43:33;29.09;65.86
75387;DHT22;63966;47.914;22.266;2023-07-13T12:46:50;28.96;65.17
75387;DHT22;63966;47.914;22.266;2023-07-13T12:49:57;29.50;66.47
75387;DHT22;63966;47.914;22.266;2023-07-13T12:53:04;29.17;63.76
75387;DHT22;63966;47.914;22.266;2023-07-13T12:56:21;29.23;65.51
75387;DHT22;63966;47.914;22.266;2023-07-13T12:59:29;29.49;64.49
75387;DHT22;63966;47.914;22.266;2023-07-13T13:02:35;29.43;65.08
75387;DHT22;63966;47.914;22.266;2023-07-13T13:05:38;29.20;65.91
75387;DHT22;63966;47.914;22.266;2023-07-13T13:08:42;28.98;65.99
75387;DHT22;63966;47.914;22.266;2023-07-13T13:11:46;28.87;66.51
75387;DHT22;63966;47.914;22.266;2023-07-13T13:14:50;28.61;68.04
75387;DHT22;63966;47.914;22.266;2023-07-13T13:17:56;28.40;68.77
75387;DHT22;63966;47.914;22.266;2023-07-13T13:20:59;28.39;69.61
75387;DHT22;63966;47.914;22.266;2023-07-13T13:24:13;28.67;68.13
75387;DHT22;63966;47.914;22.266;2023-07-13T13:27:26;29.02;67.97
75387;DHT22;63966;47.914;22.266;2023-07-13T13:30:29;28.78;67.49
75387;DHT22;63966;47.914;22.266;2023-07-13T13:33:33;28.30;68.69
75387;DHT22;63966;47.914;22.266;2023-07-13T13:36:37;28.20;68.08
75387;DHT22;63966;47.914;22.266;2023-07-13T13:39:40;28.10;69.16
75387;DHT22;63966;47.914;22.266;2023-07-13T13:42:54;28.30;70.56
75387;DHT22;63966;47.914;22.266;2023-07-13T13:46:00;28.28;69.89
75387;DHT22;63966;47.914;22.266;2023-07-13T13:49:03;28.45;70.30
75387;DHT22;63966;47.914;22.266;2023-07-13T13:52:09;28.82;67.78
75387;DHT22;63966;47.914;22.266;2023-07-13T13:55:18;28.92;67.06
75387;DHT22;63966;47.914;22.266;2023-07-13T13:58:22;28.92;65.77
75387;DHT22;63966;47.914;22.266;2023-07-13T14:01:30;28.91;62.98
75387;DHT22;63966;47.914;22.266;2023-07-13T14:04:34;28.81;65.65
75387;DHT22;63966;47.914;22.266;2023-07-13T14:07:37;28.78;65.98
75387;DHT22;63966;47.914;22.266;2023-07-13T14:10:41;28.60;65.39
75387;DHT22;63966;47.914;22.266;2023-07-13T14:13:48;28.65;64.61
75387;DHT22;63966;47.914;22.266;2023-07-13T14:16:53;28.24;65.33
75387;DHT22;63966;47.914;22.266;2023-07-13T14:19:58;28.44;66.52
75387;DHT22;63966;47.914;22.266;2023-07-13T14:23:02;28.50;65.91
75387;DHT22;63966;47.914;22.266;2023-07-13T14:26:12;28.23;64.65
75387;DHT22;63966;47.914;22.266;2023-07-13T14:29:18;28.23;65.23
75387;DHT22;63966;47.914;22.266;2023-07-13T14:32:26;28.28;64.99
75387;DHT22;63966;47.914;22.266;2023-07-13T14:35:29;28.47;64.89
75387;DHT22;63966;47.914;22.266;2023-07-13T14:38:33;28.57;63.95
75387;DHT22;63966;47.914;22.266;2023-07-13T14:41:36;28.52;65.27
75387;DHT22;63966;47.914;22.266;2023-07-13T14:44:40;28.47;64.61
75387;DHT22;63966;47.914;22.266;2023-07-13T14:47:44;28.47;65.18
75387;DHT22;63966;47.914;22.266;2023-07-13T14:50:54;28.14;64.69
75387;DHT22;63966;47.914;22.266;2023-07-13T14:54:04;27.93;65.87
75387;DHT22;63966;47.914;22.266;2023-07-13T14:57:16;28.06;65.23
75387;DHT22;63966;47.914;22.266;2023-07-13T15:00:21;28.20;64.70
75387;DHT22;63966;47.914;22.266;2023-07-13T15:03:26;28.23;65.31
75387;DHT22;63966;47.914;22.266;2023-07-13T15:06:30;28.17;64.89
75387;DHT22;63966;47.914;22.266;2023-07-13T15:09:34;28.07;65.33
75387;DHT22;63966;47.914;22.266;2023-07-13T15:12:38;27.86;64.67
75387;DHT22;63966;47.914;22.266;2023-07-13T15:15:42;27.88;65.70
75387;DHT22;63966;47.914;22.266;2023-07-13T15:18:47;27.90;64.20
75387;DHT22;63966;47.914;22.266;2023-07-13T15:21:51;27.86;64.41
75387;DHT22;63966;47.914;22.266;2023-07-13T15:24:55;27.85;63.70
75387;DHT22;63966;47.914;22.266;2023-07-13T15:28:03;27.73;62.97
75387;DHT22;63966;47.914;22.266;2023-07-13T15:31:20;27.65;63.83
75387;DHT22;63966;47.914;22.266;2023-07-13T15:34:25;27.70;65.42
75387;DHT22;63966;47.914;22.266;2023-07-13T15:37:29;27.75;64.42
75387;DHT22;63966;47.914;22.266;2023-07-13T15:40:33;27.76;62.97
75387;DHT22;63966;47.914;22.266;2023-07-13T15:43:36;27.75;65.86
75387;DHT22;63966;47.914;22.266;2023-07-13T15:46:40;27.75;64.00
75387;DHT22;63966;47.914;22.266;2023-07-13T15:49:44;27.61;63.96
75387;DHT22;63966;47.914;22.266;2023-07-13T15:52:53;27.62;65.14
75387;DHT22;63966;47.914;22.266;2023-07-13T15:55:58;27.44;65.40
75387;DHT22;63966;47.914;22.266;2023-07-13T15:59:01;27.44;64.08
75387;DHT22;63966;47.914;22.266;2023-07-13T16:02:18;27.44;65.14
75387;DHT22;63966;47.914;22.266;2023-07-13T16:05:23;27.48;64.77
75387;DHT22;63966;47.914;22.266;2023-07-13T16:08:30;27.35;65.17
75387;DHT22;63966;47.914;22.266;2023-07-13T16:11:37;27.17;65.84
75387;DHT22;63966;47.914;22.266;2023-07-13T16:14:41;26.91;67.02
75387;DHT22;63966;47.914;22.266;2023-07-13T16:17:46;26.93;66.62
75387;DHT22;63966;47.914;22.266;2023-07-13T16:20:50;27.14;67.53
75387;DHT22;63966;47.914;22.266;2023-07-13T16:23:55;27.33;68.27
75387;DHT22;63966;47.914;22.266;2023-07-13T16:27:09;27.31;67.52
75387;DHT22;63966;47.914;22.266;2023-07-13T16:30:19;27.27;67.91
75387;DHT22;63966;47.914;22.266;2023-07-13T16:33:24;27.34;68.06
75387;DHT22;63966;47.914;22.266;2023-07-13T16:36:28;27.21;67.93
75387;DHT22;63966;47.914;22.266;2023-07-13T16:39:33;27.12;68.09
75387;DHT22;63966;47.914;22.266;2023-07-13T16:42:37;27.18;66.43
75387;DHT22;63966;47.914;22.266;2023-07-13T16:45:41;27.25;65.49
75387;DHT22;63966;47.914;22.266;2023-07-13T17:03:22;26.41;67.53
75387;DHT22;63966;47.914;22.266;2023-07-13T17:06:29;26.32;67.86
75387;DHT22;63966;47.914;22.266;2023-07-13T17:09:33;26.14;68.77
75387;DHT22;63966;47.914;22.266;2023-07-13T17:12:36;26.05;69.76
75387;DHT22;63966;47.914;22.266;2023-07-13T17:15:40;25.98;69.72
75387;DHT22;63966;47.914;22.266;2023-07-13T17:18:43;25.40;71.24
75387;DHT22;63966;47.914;22.266;2023-07-13T17:21:48;24.33;72.57
75387;DHT22;63966;47.914;22.266;2023-07-13T17:24:53;23.72;75.64
75387;DHT22;63966;47.914;22.266;2023-07-13T17:27:57;22.89;78.88
75387;DHT22;63966;47.914;22.266;2023-07-13T17:31:01;22.63;81.52
75387;DHT22;63966;47.914;22.266;2023-07-13T17:34:08;22.56;80.57
75387;DHT22;63966;47.914;22.266;2023-07-13T17:37:18;22.39;79.65
75387;DHT22;63966;47.914;22.266;2023-07-13T17:40:23;22.17;80.58
75387;DHT22;63966;47.914;22.266;2023-07-13T17:43:27;21.97;82.53
75387;DHT22;63966;47.914;22.266;2023-07-13T17:46:32;21.86;83.39
75387;DHT22;63966;47.914;22.266;2023-07-13T17:49:38;21.93;83.72
75387;DHT22;63966;47.914;22.266;2023-07-13T17:52:41;21.84;84.35
75387;DHT22;63966;47.914;22.266;2023-07-13T17:55:45;21.77;85.49
75387;DHT22;63966;47.914;22.266;2023-07-13T17:58:51;21.74;85.79
75387;DHT22;63966;47.914;22.266;2023-07-13T18:01:54;21.70;86.11
75387;DHT22;63966;47.914;22.266;2023-07-13T18:04:58;21.72;86.27
75387;DHT22;63966;47.914;22.266;2023-07-13T18:08:03;21.67;86.45
75387;DHT22;63966;47.914;22.266;2023-07-13T18:11:10;21.57;86.98
75387;DHT22;63966;47.914;22.266;2023-07-13T18:14:14;21.50;87.18
75387;DHT22;63966;47.914;22.266;2023-07-13T18:17:18;21.55;86.69
75387;DHT22;63966;47.914;22.266;2023-07-13T18:20:22;21.49;87.18
75387;DHT22;63966;47.914;22.266;2023-07-13T18:23:26;21.47;87.03
75387;DHT22;63966;47.914;22.266;2023-07-13T18:26:29;21.41;87.06
75387;DHT22;63966;47.914;22.266;2023-07-13T18:29:33;21.36;87.29
75387;DHT22;63966;47.914;22.266;2023-07-13T18:32:40;21.29;87.35
75387;DHT22;63966;47.914;22.266;2023-07-13T18:35:44;21.31;87.45
75387;DHT22;63966;47.914;22.266;2023-07-13T18:38:47;21.18;87.82
75387;DHT22;63966;47.914;22.266;2023-07-13T18:41:51;21.11;88.31
75387;DHT22;63966;47.914;22.266;2023-07-13T18:44:54;21.09;88.48
75387;DHT22;63966;47.914;22.266;2023-07-13T18:47:59;21.01;88.83
75387;DHT22;63966;47.914;22.266;2023-07-13T18:51:04;20.95;88.88
75387;DHT22;63966;47.914;22.266;2023-07-13T18:54:13;21.05;86.80
75387;DHT22;63966;47.914;22.266;2023-07-13T18:57:18;20.99;87.02
75387;DHT22;63966;47.914;22.266;2023-07-13T19:00:24;20.94;86.51
75387;DHT22;63966;47.914;22.266;2023-07-13T19:03:33;20.83;86.70
75387;DHT22;63966;47.914;22.266;2023-07-13T19:06:37;20.76;86.88
75387;DHT22;63966;47.914;22.266;2023-07-13T19:09:40;20.68;87.23
75387;DHT22;63966;47.914;22.266;2023-07-13T19:12:49;20.67;87.10
75387;DHT22;63966;47.914;22.266;2023-07-13T19:15:56;20.68;86.09
75387;DHT22;63966;47.914;22.266;2023-07-13T19:19:00;20.61;86.00
75387;DHT22;63966;47.914;22.266;2023-07-13T19:22:05;20.63;84.78
75387;DHT22;63966;47.914;22.266;2023-07-13T19:25:15;20.59;84.83
75387;DHT22;63966;47.914;22.266;2023-07-13T19:28:38;20.54;84.79
75387;DHT22;63966;47.914;22.266;2023-07-13T19:31:42;20.43;85.16
75387;DHT22;63966;47.914;22.266;2023-07-13T19:34:48;20.41;84.58
75387;DHT22;63966;47.914;22.266;2023-07-13T19:37:52;20.36;84.77
75387;DHT22;63966;47.914;22.266;2023-07-13T19:40:56;20.29;84.73
75387;DHT22;63966;47.914;22.266;2023-07-13T19:43:59;20.22;84.92
75387;DHT22;63966;47.914;22.266;2023-07-13T19:47:03;20.23;84.65
75387;DHT22;63966;47.914;22.266;2023-07-13T19:50:08;20.25;84.86
75387;DHT22;63966;47.914;22.266;2023-07-13T19:53:18;20.16;84.55